createdAt,value
2018-04-12T00:00:31.951Z,1003.81
2018-04-12T00:01:12.529Z,1003.79
2018-04-12T00:01:53.099Z,1003.82
2018-04-12T00:02:33.667Z,1003.78
2018-04-12T00:03:14.218Z,1003.76
2018-04-12T00:03:54.843Z,1003.79
2018-04-12T00:04:35.427Z,1003.77
2018-04-12T00:05:15.975Z,1003.81
2018-04-12T00:05:56.555Z,1003.8
2018-04-12T00:06:37.119Z,1003.77
2018-04-12T00:07:17.688Z,1003.79
2018-04-12T00:07:58.255Z,1003.78
2018-04-12T00:08:38.816Z,1003.76
2018-04-12T00:09:19.371Z,1003.81
2018-04-12T00:10:00.004Z,1003.82
2018-04-12T00:10:40.576Z,1003.74
2018-04-12T00:11:21.140Z,1003.78
2018-04-12T00:12:01.689Z,1003.77
2018-04-12T00:12:42.268Z,1003.73
2018-04-12T00:13:22.872Z,1003.77
2018-04-12T00:14:03.457Z,1003.78
2018-04-12T00:14:44.023Z,1003.71
2018-04-12T00:15:24.578Z,1003.75
2018-04-12T00:16:05.137Z,1003.76
2018-04-12T00:16:45.690Z,1003.75
2018-04-12T00:17:26.254Z,1003.77
2018-04-12T00:18:06.812Z,1003.76
2018-04-12T00:18:47.369Z,1003.74
2018-04-12T00:19:27.930Z,1003.69
2018-04-12T00:20:08.491Z,1003.71
2018-04-12T00:20:49.049Z,1003.69
2018-04-12T00:21:29.622Z,1003.66
2018-04-12T00:22:10.227Z,1003.68
2018-04-12T00:22:50.791Z,1003.59
2018-04-12T00:23:31.353Z,1003.64
2018-04-12T00:24:11.973Z,1003.62
2018-04-12T00:24:52.548Z,1003.58
2018-04-12T00:25:33.105Z,1003.6
2018-04-12T00:26:13.663Z,1003.63
2018-04-12T00:26:54.222Z,1003.61
2018-04-12T00:27:34.794Z,1003.62
2018-04-12T00:28:15.378Z,1003.61
2018-04-12T00:28:55.953Z,1003.6
2018-04-12T00:29:36.558Z,1003.63
2018-04-12T00:30:17.118Z,1003.63
2018-04-12T00:30:57.675Z,1003.64
2018-04-12T00:31:38.236Z,1003.67
2018-04-12T00:32:18.801Z,1003.66
2018-04-12T00:32:59.383Z,1003.58
2018-04-12T00:33:39.981Z,1003.59
2018-04-12T00:34:20.549Z,1003.66
2018-04-12T00:35:01.148Z,1003.58
2018-04-12T00:35:41.707Z,1003.61
2018-04-12T00:36:22.274Z,1003.64
2018-04-12T00:37:02.833Z,1003.63
2018-04-12T00:37:43.394Z,1003.65
2018-04-12T00:38:23.951Z,1003.61
2018-04-12T00:39:04.512Z,1003.62
2018-04-12T00:39:45.075Z,1003.61
2018-04-12T00:40:25.627Z,1003.58
2018-04-12T00:41:06.211Z,1003.64
2018-04-12T00:41:46.774Z,1003.6
2018-04-12T00:42:27.365Z,1003.66
2018-04-12T00:43:07.917Z,1003.62
2018-04-12T00:43:48.513Z,1003.63
2018-04-12T00:44:29.068Z,1003.64
2018-04-12T00:45:09.648Z,1003.64
2018-04-12T00:45:50.212Z,1003.61
2018-04-12T00:46:30.790Z,1003.61
2018-04-12T00:47:11.368Z,1003.61
2018-04-12T00:47:51.932Z,1003.63
2018-04-12T00:48:32.516Z,1003.58
2018-04-12T00:49:13.073Z,1003.55
2018-04-12T00:49:53.662Z,1003.54
2018-04-12T00:50:34.233Z,1003.53
2018-04-12T00:51:14.793Z,1003.59
2018-04-12T00:51:55.375Z,1003.58
2018-04-12T00:52:35.970Z,1003.6
2018-04-12T00:53:16.511Z,1003.55
2018-04-12T00:53:57.090Z,1003.51
2018-04-12T00:54:37.659Z,1003.54
2018-04-12T00:55:18.232Z,1003.53
2018-04-12T00:55:58.809Z,1003.55
2018-04-12T00:56:39.411Z,1003.55
2018-04-12T00:57:19.990Z,1003.53
2018-04-12T00:58:00.592Z,1003.5
2018-04-12T00:58:41.139Z,1003.53
2018-04-12T00:59:21.700Z,1003.49
2018-04-12T01:00:02.271Z,1003.52
2018-04-12T01:00:42.827Z,1003.49
2018-04-12T01:01:23.393Z,1003.48
2018-04-12T01:02:03.947Z,1003.5
2018-04-12T01:02:44.515Z,1003.52
2018-04-12T01:03:25.077Z,1003.51
2018-04-12T01:04:05.636Z,1003.51
2018-04-12T01:04:46.190Z,1003.51
2018-04-12T01:05:26.800Z,1003.49
2018-04-12T01:06:07.370Z,1003.48
2018-04-12T01:06:47.932Z,1003.49
2018-04-12T01:07:28.491Z,1003.47
2018-04-12T01:08:09.050Z,1003.47
2018-04-12T01:08:49.606Z,1003.49
2018-04-12T01:09:30.159Z,1003.45
2018-04-12T01:10:10.768Z,1003.49
2018-04-12T01:10:51.336Z,1003.47
2018-04-12T01:11:31.953Z,1003.47
2018-04-12T01:12:12.531Z,1003.48
2018-04-12T01:12:53.127Z,1003.52
2018-04-12T01:13:33.742Z,1003.44
2018-04-12T01:14:14.304Z,1003.49
2018-04-12T01:14:54.891Z,1003.44
2018-04-12T01:15:35.473Z,1003.49
2018-04-12T01:16:16.030Z,1003.44
2018-04-12T01:16:56.615Z,1003.4
2018-04-12T01:17:37.214Z,1003.45
2018-04-12T01:18:17.779Z,1003.46
2018-04-12T01:18:58.371Z,1003.43
2018-04-12T01:19:38.953Z,1003.44
2018-04-12T01:20:19.525Z,1003.41
2018-04-12T01:21:00.101Z,1003.4
2018-04-12T01:21:40.677Z,1003.4
2018-04-12T01:22:21.232Z,1003.42
2018-04-12T01:23:01.803Z,1003.41
2018-04-12T01:23:42.358Z,1003.44
2018-04-12T01:24:22.920Z,1003.35
2018-04-12T01:25:03.506Z,1003.39
2018-04-12T01:25:44.076Z,1003.4
2018-04-12T01:26:24.667Z,1003.39
2018-04-12T01:27:05.221Z,1003.39
2018-04-12T01:27:45.774Z,1003.4
2018-04-12T01:28:26.339Z,1003.34
2018-04-12T01:29:06.900Z,1003.37
2018-04-12T01:29:47.488Z,1003.38
2018-04-12T01:30:28.049Z,1003.43
2018-04-12T01:31:08.624Z,1003.42
2018-04-12T01:31:49.172Z,1003.42
2018-04-12T01:32:29.736Z,1003.41
2018-04-12T01:33:10.337Z,1003.38
2018-04-12T01:33:50.931Z,1003.39
2018-04-12T01:34:31.495Z,1003.37
2018-04-12T01:35:12.042Z,1003.44
2018-04-12T01:35:52.614Z,1003.41
2018-04-12T01:36:33.171Z,1003.42
2018-04-12T01:37:13.732Z,1003.4
2018-04-12T01:37:54.284Z,1003.44
2018-04-12T01:38:34.856Z,1003.39
2018-04-12T01:39:15.432Z,1003.36
2018-04-12T01:39:56.007Z,1003.37
2018-04-12T01:40:36.565Z,1003.37
2018-04-12T01:41:17.116Z,1003.42
2018-04-12T01:41:57.707Z,1003.32
2018-04-12T01:42:38.262Z,1003.35
2018-04-12T01:43:18.812Z,1003.43
2018-04-12T01:43:59.402Z,1003.33
2018-04-12T01:44:39.953Z,1003.3
2018-04-12T01:45:20.524Z,1003.26
2018-04-12T01:46:01.104Z,1003.29
2018-04-12T01:46:41.666Z,1003.22
2018-04-12T01:47:22.224Z,1003.25
2018-04-12T01:48:02.798Z,1003.26
2018-04-12T01:48:43.406Z,1003.27
2018-04-12T01:49:23.982Z,1003.26
2018-04-12T01:50:04.552Z,1003.23
2018-04-12T01:50:45.122Z,1003.29
2018-04-12T01:51:25.704Z,1003.21
2018-04-12T01:52:06.272Z,1003.26
2018-04-12T01:52:46.854Z,1003.22
2018-04-12T01:53:27.416Z,1003.23
2018-04-12T01:54:07.981Z,1003.26
2018-04-12T01:54:48.536Z,1003.28
2018-04-12T01:55:29.091Z,1003.26
2018-04-12T01:56:09.651Z,1003.28
2018-04-12T01:56:50.242Z,1003.29
2018-04-12T01:57:30.841Z,1003.31
2018-04-12T01:58:11.398Z,1003.3
2018-04-12T01:58:51.966Z,1003.28
2018-04-12T01:59:32.555Z,1003.3
2018-04-12T02:00:13.124Z,1003.24
2018-04-12T02:00:53.693Z,1003.25
2018-04-12T02:01:34.286Z,1003.27
2018-04-12T02:02:14.871Z,1003.27
2018-04-12T02:02:55.451Z,1003.27
2018-04-12T02:03:36.001Z,1003.26
2018-04-12T02:04:16.561Z,1003.26
2018-04-12T02:04:57.128Z,1003.26
2018-04-12T02:05:37.696Z,1003.27
2018-04-12T02:06:18.279Z,1003.26
2018-04-12T02:06:58.836Z,1003.23
2018-04-12T02:07:39.391Z,1003.24
2018-04-12T02:08:19.967Z,1003.24
2018-04-12T02:09:00.521Z,1003.16
2018-04-12T02:09:41.086Z,1003.19
2018-04-12T02:10:21.640Z,1003.18
2018-04-12T02:11:02.205Z,1003.18
2018-04-12T02:11:42.768Z,1003.18
2018-04-12T02:12:23.344Z,1003.2
2018-04-12T02:13:03.898Z,1003.17
2018-04-12T02:13:44.458Z,1003.21
2018-04-12T02:14:25.078Z,1003.22
2018-04-12T02:15:05.648Z,1003.21
2018-04-12T02:15:46.227Z,1003.16
2018-04-12T02:16:26.800Z,1003.19
2018-04-12T02:17:07.344Z,1003.15
2018-04-12T02:17:47.957Z,1003.16
2018-04-12T02:18:28.553Z,1003.16
2018-04-12T02:19:09.114Z,1003.2
2018-04-12T02:19:49.683Z,1003.19
2018-04-12T02:20:30.245Z,1003.19
2018-04-12T02:21:10.806Z,1003.15
2018-04-12T02:21:51.381Z,1003.13
2018-04-12T02:22:31.947Z,1003.15
2018-04-12T02:23:12.503Z,1003.17
2018-04-12T02:23:53.081Z,1003.14
2018-04-12T02:24:33.649Z,1003.14
2018-04-12T02:25:14.209Z,1003.16
2018-04-12T02:25:54.779Z,1003.17
2018-04-12T02:26:35.341Z,1003.11
2018-04-12T02:27:15.912Z,1003.12
2018-04-12T02:27:56.469Z,1003.18
2018-04-12T02:28:37.028Z,1003.12
2018-04-12T02:29:17.580Z,1003.17
2018-04-12T02:29:58.166Z,1003.14
2018-04-12T02:30:38.718Z,1003.13
2018-04-12T02:31:19.288Z,1003.13
2018-04-12T02:31:59.836Z,1003.13
2018-04-12T02:32:40.426Z,1003.13
2018-04-12T02:33:20.991Z,1003.11
2018-04-12T02:34:01.560Z,1003.1
2018-04-12T02:34:42.109Z,1003.08
2018-04-12T02:35:22.677Z,1003.11
2018-04-12T02:36:03.241Z,1003.07
2018-04-12T02:36:43.806Z,1003.05
2018-04-12T02:37:24.370Z,1003.06
2018-04-12T02:38:04.946Z,1003.09
2018-04-12T02:38:45.528Z,1003.06
2018-04-12T02:39:26.114Z,1003.04
2018-04-12T02:40:06.740Z,1003.06
2018-04-12T02:40:47.291Z,1003.06
2018-04-12T02:41:27.852Z,1003.01
2018-04-12T02:42:08.409Z,1003.03
2018-04-12T02:42:48.998Z,1003.02
2018-04-12T02:43:29.549Z,1003.01
2018-04-12T02:44:10.140Z,1003.05
2018-04-12T02:44:50.700Z,1003.1
2018-04-12T02:45:31.268Z,1003.07
2018-04-12T02:46:11.847Z,1003.04
2018-04-12T02:46:52.412Z,1003.11
2018-04-12T02:47:32.987Z,1003.05
2018-04-12T02:48:13.550Z,1003.04
2018-04-12T02:48:54.128Z,1003.07
2018-04-12T02:49:34.688Z,1003.04
2018-04-12T02:50:15.267Z,1003.05
2018-04-12T02:50:55.845Z,1003.08
2018-04-12T02:51:36.399Z,1003.01
2018-04-12T02:52:16.961Z,1003.04
2018-04-12T02:52:57.533Z,1003.02
2018-04-12T02:53:38.095Z,1002.96
2018-04-12T02:54:18.676Z,1002.96
2018-04-12T02:54:59.242Z,1002.98
2018-04-12T02:55:39.812Z,1002.97
2018-04-12T02:56:20.393Z,1002.97
2018-04-12T02:57:00.949Z,1002.95
2018-04-12T02:57:41.507Z,1002.93
2018-04-12T02:58:22.087Z,1002.91
2018-04-12T02:59:02.671Z,1002.9
2018-04-12T02:59:43.265Z,1002.92
2018-04-12T03:00:23.859Z,1002.88
2018-04-12T03:01:04.426Z,1002.92
2018-04-12T03:01:45.010Z,1002.89
2018-04-12T03:02:25.582Z,1002.88
2018-04-12T03:03:06.154Z,1002.89
2018-04-12T03:03:46.704Z,1002.86
2018-04-12T03:04:27.265Z,1002.88
2018-04-12T03:05:07.826Z,1002.91
2018-04-12T03:05:48.387Z,1002.89
2018-04-12T03:06:28.969Z,1002.86
2018-04-12T03:07:09.543Z,1002.87
2018-04-12T03:07:50.099Z,1002.91
2018-04-12T03:08:30.656Z,1002.86
2018-04-12T03:09:11.251Z,1002.92
2018-04-12T03:09:51.819Z,1002.85
2018-04-12T03:10:32.396Z,1002.85
2018-04-12T03:11:12.957Z,1002.84
2018-04-12T03:11:53.516Z,1002.85
2018-04-12T03:12:34.070Z,1002.85
2018-04-12T03:13:14.644Z,1002.84
2018-04-12T03:13:55.214Z,1002.84
2018-04-12T03:14:35.794Z,1002.83
2018-04-12T03:15:16.372Z,1002.79
2018-04-12T03:15:56.938Z,1002.76
2018-04-12T03:16:37.521Z,1002.75
2018-04-12T03:17:18.076Z,1002.78
2018-04-12T03:17:58.638Z,1002.76
2018-04-12T03:18:39.200Z,1002.7
2018-04-12T03:19:19.764Z,1002.75
2018-04-12T03:20:00.339Z,1002.73
2018-04-12T03:20:40.896Z,1002.77
2018-04-12T03:21:21.465Z,1002.79
2018-04-12T03:22:02.043Z,1002.75
2018-04-12T03:22:42.614Z,1002.73
2018-04-12T03:23:23.190Z,1002.77
2018-04-12T03:24:03.751Z,1002.72
2018-04-12T03:24:44.306Z,1002.69
2018-04-12T03:25:24.877Z,1002.7
2018-04-12T03:26:05.457Z,1002.71
2018-04-12T03:26:46.032Z,1002.67
2018-04-12T03:27:26.598Z,1002.65
2018-04-12T03:28:07.156Z,1002.65
2018-04-12T03:28:47.717Z,1002.61
2018-04-12T03:29:28.279Z,1002.7
2018-04-12T03:30:08.871Z,1002.67
2018-04-12T03:30:49.434Z,1002.64
2018-04-12T03:31:29.983Z,1002.6
2018-04-12T03:32:10.541Z,1002.57
2018-04-12T03:32:51.125Z,1002.54
2018-04-12T03:33:31.687Z,1002.54
2018-04-12T03:34:12.274Z,1002.55
2018-04-12T03:34:52.832Z,1002.55
2018-04-12T03:35:33.407Z,1002.55
2018-04-12T03:36:13.965Z,1002.57
2018-04-12T03:36:54.532Z,1002.51
2018-04-12T03:37:35.098Z,1002.55
2018-04-12T03:38:15.650Z,1002.59
2018-04-12T03:38:56.257Z,1002.55
2018-04-12T03:39:36.829Z,1002.58
2018-04-12T03:40:17.391Z,1002.56
2018-04-12T03:40:57.969Z,1002.51
2018-04-12T03:41:38.560Z,1002.54
2018-04-12T03:42:19.127Z,1002.57
2018-04-12T03:42:59.696Z,1002.54
2018-04-12T03:43:40.287Z,1002.53
2018-04-12T03:44:20.870Z,1002.51
2018-04-12T03:45:01.436Z,1002.59
2018-04-12T03:45:42.022Z,1002.52
2018-04-12T03:46:22.595Z,1002.52
2018-04-12T03:47:03.159Z,1002.47
2018-04-12T03:47:43.739Z,1002.5
2018-04-12T03:48:24.313Z,1002.48
2018-04-12T03:49:04.917Z,1002.46
2018-04-12T03:49:45.586Z,1002.42
2018-04-12T03:50:26.036Z,1002.48
2018-04-12T03:51:06.591Z,1002.45
2018-04-12T03:51:47.154Z,1002.45
2018-04-12T03:52:27.713Z,1002.47
2018-04-12T03:53:08.272Z,1002.41
2018-04-12T03:53:48.829Z,1002.46
2018-04-12T03:54:29.372Z,1002.44
2018-04-12T03:55:09.961Z,1002.44
2018-04-12T03:55:50.527Z,1002.4
2018-04-12T03:56:31.121Z,1002.43
2018-04-12T03:57:11.711Z,1002.4
2018-04-12T03:57:52.314Z,1002.34
2018-04-12T03:58:32.920Z,1002.34
2018-04-12T03:59:13.494Z,1002.34
2018-04-12T03:59:54.045Z,1002.37
2018-04-12T04:00:34.632Z,1002.32
2018-04-12T04:01:15.218Z,1002.3
2018-04-12T04:01:55.838Z,1002.32
2018-04-12T04:02:36.431Z,1002.28
2018-04-12T04:03:17.053Z,1002.25
2018-04-12T04:03:57.601Z,1002.27
2018-04-12T04:04:38.203Z,1002.21
2018-04-12T04:05:18.764Z,1002.22
2018-04-12T04:05:59.325Z,1002.21
2018-04-12T04:06:39.902Z,1002.2
2018-04-12T04:07:20.523Z,1002.19
2018-04-12T04:08:01.093Z,1002.15
2018-04-12T04:08:41.658Z,1002.15
2018-04-12T04:09:22.217Z,1002.15
2018-04-12T04:10:02.769Z,1002.11
2018-04-12T04:10:43.326Z,1002.14
2018-04-12T04:11:23.893Z,1002.15
2018-04-12T04:12:04.471Z,1002.18
2018-04-12T04:12:45.062Z,1002.15
2018-04-12T04:13:25.651Z,1002.12
2018-04-12T04:14:06.237Z,1002.07
2018-04-12T04:14:46.816Z,1002.11
2018-04-12T04:15:27.371Z,1002.08
2018-04-12T04:16:08.106Z,1002.11
2018-04-12T04:16:48.840Z,1002.12
2018-04-12T04:17:29.399Z,1002.15
2018-04-12T04:18:09.969Z,1002.17
2018-04-12T04:18:50.525Z,1002.16
2018-04-12T04:19:31.072Z,1002.13
2018-04-12T04:20:11.634Z,1002.18
2018-04-12T04:20:52.237Z,1002.15
2018-04-12T04:21:32.780Z,1002.18
2018-04-12T04:22:13.428Z,1002.17
2018-04-12T04:22:55.965Z,1002.19
2018-04-12T04:23:36.593Z,1002.16
2018-04-12T04:24:17.166Z,1002.19
2018-04-12T04:24:57.747Z,1002.22
2018-04-12T04:25:38.314Z,1002.14
2018-04-12T04:26:18.901Z,1002.25
2018-04-12T04:26:59.465Z,1002.18
2018-04-12T04:27:40.023Z,1002.15
2018-04-12T04:28:20.611Z,1002.18
2018-04-12T04:29:01.179Z,1002.13
2018-04-12T04:29:41.742Z,1002.11
2018-04-12T04:30:22.308Z,1002.13
2018-04-12T04:31:02.869Z,1002.12
2018-04-12T04:31:43.428Z,1002.19
2018-04-12T04:32:23.987Z,1002.14
2018-04-12T04:33:04.546Z,1002.15
2018-04-12T04:33:45.123Z,1002.13
2018-04-12T04:34:25.693Z,1002.09
2018-04-12T04:35:06.286Z,1002.12
2018-04-12T04:35:46.829Z,1002.11
2018-04-12T04:36:27.424Z,1002.1
2018-04-12T04:37:07.990Z,1002.08
2018-04-12T04:37:48.582Z,1002.07
2018-04-12T04:38:29.153Z,1002.08
2018-04-12T04:39:09.744Z,1002.03
2018-04-12T04:39:50.356Z,1002.1
2018-04-12T04:40:30.941Z,1002.08
2018-04-12T04:41:11.485Z,1002.04
2018-04-12T04:41:52.032Z,1002.05
2018-04-12T04:42:32.583Z,1002.04
2018-04-12T04:43:13.153Z,1002.04
2018-04-12T04:43:53.778Z,1002.04
2018-04-12T04:44:34.315Z,1002.01
2018-04-12T04:45:14.877Z,1002.04
2018-04-12T04:45:55.430Z,1002.01
2018-04-12T04:46:36.039Z,1002.04
2018-04-12T04:47:16.748Z,1002.03
2018-04-12T04:47:57.292Z,1002.05
2018-04-12T04:48:37.895Z,1002.01
2018-04-12T04:49:18.456Z,1002.04
2018-04-12T04:49:59.031Z,1002.08
2018-04-12T04:50:39.624Z,1002.07
2018-04-12T04:51:20.205Z,1002.04
2018-04-12T04:52:00.766Z,1002.09
2018-04-12T04:52:41.354Z,1002.1
2018-04-12T04:53:21.969Z,1002.12
2018-04-12T04:54:02.569Z,1002.09
2018-04-12T04:54:43.279Z,1002.12
2018-04-12T04:55:23.884Z,1002.09
2018-04-12T04:56:05.023Z,1002.16
2018-04-12T04:56:45.877Z,1002.15
2018-04-12T04:57:26.449Z,1002.15
2018-04-12T04:58:07.011Z,1002.14
2018-04-12T04:58:47.579Z,1002.18
2018-04-12T04:59:28.159Z,1002.17
2018-04-12T05:00:08.737Z,1002.22
2018-04-12T05:00:49.292Z,1002.25
2018-04-12T05:01:29.911Z,1002.23
2018-04-12T05:02:10.434Z,1002.27
2018-04-12T05:02:51.002Z,1002.32
2018-04-12T05:03:31.561Z,1002.27
2018-04-12T05:04:12.127Z,1002.25
2018-04-12T05:04:52.718Z,1002.31
2018-04-12T05:05:33.286Z,1002.32
2018-04-12T05:06:13.856Z,1002.39
2018-04-12T05:06:54.411Z,1002.35
2018-04-12T05:07:34.994Z,1002.35
2018-04-12T05:08:15.565Z,1002.29
2018-04-12T05:08:56.121Z,1002.35
2018-04-12T05:09:36.676Z,1002.33
2018-04-12T05:10:17.271Z,1002.33
2018-04-12T05:10:57.983Z,1002.3
2018-04-12T05:11:38.556Z,1002.28
2018-04-12T05:12:19.114Z,1002.26
2018-04-12T05:12:59.680Z,1002.24
2018-04-12T05:13:40.251Z,1002.35
2018-04-12T05:14:20.845Z,1002.33
2018-04-12T05:15:01.438Z,1002.25
2018-04-12T05:15:42.031Z,1002.3
2018-04-12T05:16:22.564Z,1002.37
2018-04-12T05:17:03.178Z,1002.36
2018-04-12T05:17:43.758Z,1002.4
2018-04-12T05:18:24.336Z,1002.34
2018-04-12T05:19:05.024Z,1002.28
2018-04-12T05:19:45.554Z,1002.29
2018-04-12T05:20:26.169Z,1002.28
2018-04-12T05:21:06.766Z,1002.36
2018-04-12T05:21:47.346Z,1002.34
2018-04-12T05:22:27.915Z,1002.35
2018-04-12T05:23:08.476Z,1002.31
2018-04-12T05:23:49.038Z,1002.34
2018-04-12T05:24:29.598Z,1002.35
2018-04-12T05:25:10.167Z,1002.29
2018-04-12T05:25:50.735Z,1002.25
2018-04-12T05:26:31.299Z,1002.33
2018-04-12T05:27:11.874Z,1002.28
2018-04-12T05:27:52.477Z,1002.3
2018-04-12T05:28:33.016Z,1002.3
2018-04-12T05:29:13.710Z,1002.25
2018-04-12T05:29:54.283Z,1002.28
2018-04-12T05:30:34.887Z,1002.22
2018-04-12T05:31:15.481Z,1002.26
2018-04-12T05:31:56.070Z,1002.25
2018-04-12T05:32:36.616Z,1002.3
2018-04-12T05:33:17.225Z,1002.29
2018-04-12T05:33:57.777Z,1002.23
2018-04-12T05:34:38.342Z,1002.26
2018-04-12T05:35:18.929Z,1002.28
2018-04-12T05:35:59.471Z,1002.3
2018-04-12T05:36:40.098Z,1002.27
2018-04-12T05:37:20.725Z,1002.24
2018-04-12T05:38:01.293Z,1002.24
2018-04-12T05:38:41.889Z,1002.27
2018-04-12T05:39:22.442Z,1002.25
2018-04-12T05:40:02.996Z,1002.21
2018-04-12T05:40:43.565Z,1002.2
2018-04-12T05:41:24.135Z,1002.25
2018-04-12T05:42:04.705Z,1002.21
2018-04-12T05:42:45.278Z,1002.26
2018-04-12T05:43:25.854Z,1002.26
2018-04-12T05:44:06.438Z,1002.27
2018-04-12T05:44:47.009Z,1002.23
2018-04-12T05:45:27.588Z,1002.21
2018-04-12T05:46:08.285Z,1002.25
2018-04-12T05:46:48.842Z,1002.22
2018-04-12T05:47:29.417Z,1002.21
2018-04-12T05:48:09.973Z,1002.23
2018-04-12T05:48:50.536Z,1002.26
2018-04-12T05:49:31.094Z,1002.24
2018-04-12T05:50:11.655Z,1002.24
2018-04-12T05:50:52.236Z,1002.23
2018-04-12T05:51:34.649Z,1002.24
2018-04-12T05:52:15.263Z,1002.24
2018-04-12T05:52:55.888Z,1002.2
2018-04-12T05:53:36.449Z,1002.26
2018-04-12T05:54:17.062Z,1002.28
2018-04-12T05:54:57.662Z,1002.23
2018-04-12T05:55:38.216Z,1002.26
2018-04-12T05:56:18.779Z,1002.3
2018-04-12T05:56:59.340Z,1002.22
2018-04-12T05:57:39.914Z,1002.22
2018-04-12T05:58:20.544Z,1002.33
2018-04-12T05:59:01.103Z,1002.25
2018-04-12T05:59:41.666Z,1002.22
2018-04-12T06:00:22.230Z,1002.28
2018-04-12T06:01:02.832Z,1002.26
2018-04-12T06:01:43.418Z,1002.22
2018-04-12T06:02:23.977Z,1002.17
2018-04-12T06:03:04.603Z,1002.23
2018-04-12T06:03:45.187Z,1002.21
2018-04-12T06:04:25.786Z,1002.18
2018-04-12T06:05:06.371Z,1002.19
2018-04-12T06:05:46.947Z,1002.19
2018-04-12T06:06:27.526Z,1002.21
2018-04-12T06:07:08.111Z,1002.15
2018-04-12T06:07:48.664Z,1002.16
2018-04-12T06:08:29.229Z,1002.21
2018-04-12T06:09:09.791Z,1002.25
2018-04-12T06:09:50.397Z,1002.23
2018-04-12T06:10:30.963Z,1002.25
2018-04-12T06:11:11.571Z,1002.21
2018-04-12T06:11:52.230Z,1002.21
2018-04-12T06:12:32.852Z,1002.25
2018-04-12T06:13:13.442Z,1002.24
2018-04-12T06:13:53.996Z,1002.21
2018-04-12T06:14:34.578Z,1002.2
2018-04-12T06:15:15.132Z,1002.19
2018-04-12T06:15:55.704Z,1002.24
2018-04-12T06:16:36.293Z,1002.3
2018-04-12T06:17:16.856Z,1002.33
2018-04-12T06:17:57.451Z,1002.28
2018-04-12T06:18:38.024Z,1002.34
2018-04-12T06:19:18.619Z,1002.33
2018-04-12T06:19:59.224Z,1002.31
2018-04-12T06:20:39.769Z,1002.36
2018-04-12T06:21:20.532Z,1002.35
2018-04-12T06:22:01.091Z,1002.33
2018-04-12T06:22:41.648Z,1002.31
2018-04-12T06:23:22.258Z,1002.26
2018-04-12T06:24:02.810Z,1002.3
2018-04-12T06:24:43.379Z,1002.3
2018-04-12T06:25:23.965Z,1002.32
2018-04-12T06:26:04.571Z,1002.27
2018-04-12T06:26:45.146Z,1002.29
2018-04-12T06:27:25.734Z,1002.25
2018-04-12T06:28:06.326Z,1002.26
2018-04-12T06:28:46.909Z,1002.25
2018-04-12T06:29:27.562Z,1002.25
2018-04-12T06:30:08.126Z,1002.32
2018-04-12T06:30:48.739Z,1002.29
2018-04-12T06:31:29.378Z,1002.27
2018-04-12T06:32:10.019Z,1002.21
2018-04-12T06:32:50.802Z,1002.32
2018-04-12T06:33:31.900Z,1002.27
2018-04-12T06:34:12.288Z,1002.32
2018-04-12T06:34:52.860Z,1002.3
2018-04-12T06:35:33.411Z,1002.3
2018-04-12T06:36:13.968Z,1002.25
2018-04-12T06:36:54.566Z,1002.23
2018-04-12T06:37:35.138Z,1002.25
2018-04-12T06:38:15.741Z,1002.37
2018-04-12T06:38:56.338Z,1002.28
2018-04-12T06:39:36.908Z,1002.29
2018-04-12T06:40:17.472Z,1002.3
2018-04-12T06:40:58.042Z,1002.29
2018-04-12T06:41:38.598Z,1002.36
2018-04-12T06:42:19.173Z,1002.32
2018-04-12T06:42:59.727Z,1002.27
2018-04-12T06:43:40.304Z,1002.3
2018-04-12T06:44:20.885Z,1002.32
2018-04-12T06:45:01.490Z,1002.31
2018-04-12T06:45:42.092Z,1002.3
2018-04-12T06:46:22.722Z,1002.34
2018-04-12T06:47:03.281Z,1002.36
2018-04-12T06:47:43.845Z,1002.37
2018-04-12T06:48:24.416Z,1002.34
2018-04-12T06:49:05.024Z,1002.32
2018-04-12T06:49:45.598Z,1002.31
2018-04-12T06:50:26.181Z,1002.3
2018-04-12T06:51:06.787Z,1002.26
2018-04-12T06:51:47.397Z,1002.26
2018-04-12T06:52:27.977Z,1002.19
2018-04-12T06:53:08.537Z,1002.19
2018-04-12T06:53:49.101Z,1002.25
2018-04-12T06:54:29.671Z,1002.21
2018-04-12T06:55:10.267Z,1002.12
2018-04-12T06:55:50.835Z,1002.1
2018-04-12T06:56:31.448Z,1002.15
2018-04-12T06:57:12.041Z,1002.09
2018-04-12T06:57:52.596Z,1002.1
2018-04-12T06:58:33.170Z,1002.07
2018-04-12T06:59:13.739Z,1001.98
2018-04-12T06:59:54.328Z,1002
2018-04-12T07:00:34.915Z,1001.99
2018-04-12T07:01:15.498Z,1001.89
2018-04-12T07:01:56.109Z,1001.96
2018-04-12T07:02:37.363Z,1001.93
2018-04-12T07:03:17.991Z,1001.89
2018-04-12T07:03:58.728Z,1001.94
2018-04-12T07:04:39.294Z,1001.91
2018-04-12T07:05:19.894Z,1001.95
2018-04-12T07:06:00.462Z,1001.93
2018-04-12T07:06:41.720Z,1001.99
2018-04-12T07:07:22.362Z,1001.98
2018-04-12T07:08:02.915Z,1001.98
2018-04-12T07:08:43.510Z,1001.97
2018-04-12T07:09:24.190Z,1002.02
2018-04-12T07:10:04.861Z,1001.96
2018-04-12T07:10:45.439Z,1001.97
2018-04-12T07:11:26.010Z,1002.04
2018-04-12T07:12:06.602Z,1001.98
2018-04-12T07:12:47.187Z,1001.97
2018-04-12T07:13:27.754Z,1002.03
2018-04-12T07:14:08.324Z,1001.96
2018-04-12T07:14:48.918Z,1002.02
2018-04-12T07:15:29.484Z,1002.04
2018-04-12T07:16:10.048Z,1001.98
2018-04-12T07:16:50.690Z,1002.01
2018-04-12T07:17:31.372Z,1002.03
2018-04-12T07:18:12.171Z,1002.08
2018-04-12T07:18:53.119Z,1002.08
2018-04-12T07:19:34.116Z,1002.05
2018-04-12T07:20:14.666Z,1002.05
2018-04-12T07:20:55.221Z,1002.09
2018-04-12T07:21:35.925Z,1002.02
2018-04-12T07:22:16.666Z,1002.05
2018-04-12T07:22:57.343Z,1001.96
2018-04-12T07:23:38.334Z,1001.99
2018-04-12T07:24:19.196Z,1001.98
2018-04-12T07:24:59.819Z,1001.9
2018-04-12T07:25:40.528Z,1001.88
2018-04-12T07:26:21.158Z,1001.85
2018-04-12T07:27:01.719Z,1001.91
2018-04-12T07:27:43.335Z,1001.89
2018-04-12T07:28:23.972Z,1001.93
2018-04-12T07:29:04.585Z,1001.89
2018-04-12T07:29:45.193Z,1001.9
2018-04-12T07:30:25.775Z,1001.9
2018-04-12T07:31:06.341Z,1001.87
2018-04-12T07:31:47.259Z,1001.87
2018-04-12T07:32:27.850Z,1001.85
2018-04-12T07:33:08.445Z,1001.88
2018-04-12T07:33:49.004Z,1001.89
2018-04-12T07:34:29.576Z,1001.94
2018-04-12T07:35:10.154Z,1001.9
2018-04-12T07:35:50.785Z,1001.94
2018-04-12T07:36:31.404Z,1001.92
2018-04-12T07:37:12.000Z,1001.89
2018-04-12T07:37:52.606Z,1001.87
2018-04-12T07:38:34.246Z,1001.84
2018-04-12T07:39:14.845Z,1001.84
2018-04-12T07:39:55.414Z,1001.89
2018-04-12T07:40:35.992Z,1001.85
2018-04-12T07:41:16.913Z,1001.79
2018-04-12T07:41:57.530Z,1001.8
2018-04-12T07:42:38.157Z,1001.8
2018-04-12T07:43:18.735Z,1001.83
2018-04-12T07:43:59.301Z,1001.82
2018-04-12T07:44:39.894Z,1001.78
2018-04-12T07:45:20.503Z,1001.81
2018-04-12T07:46:01.151Z,1001.8
2018-04-12T07:46:41.989Z,1001.84
2018-04-12T07:47:22.945Z,1001.82
2018-04-12T07:48:03.691Z,1001.83
2018-04-12T07:48:44.257Z,1001.84
2018-04-12T07:49:25.197Z,1001.85
2018-04-12T07:50:05.953Z,1001.83
2018-04-12T07:50:46.415Z,1001.89
2018-04-12T07:51:27.079Z,1001.91
2018-04-12T07:52:07.645Z,1001.86
2018-04-12T07:52:48.272Z,1001.83
2018-04-12T07:53:28.838Z,1001.86
2018-04-12T07:54:09.413Z,1001.86
2018-04-12T07:54:50.010Z,1001.88
2018-04-12T07:55:30.642Z,1001.89
2018-04-12T07:56:11.212Z,1001.87
2018-04-12T07:56:51.803Z,1001.81
2018-04-12T07:57:32.392Z,1001.89
2018-04-12T07:58:12.982Z,1001.85
2018-04-12T07:58:53.575Z,1001.85
2018-04-12T07:59:34.155Z,1001.87
2018-04-12T08:00:14.779Z,1001.91
2018-04-12T08:00:55.352Z,1001.93
2018-04-12T08:01:35.915Z,1001.84
2018-04-12T08:02:16.481Z,1001.88
2018-04-12T08:02:57.041Z,1001.9
2018-04-12T08:03:37.675Z,1001.88
2018-04-12T08:04:18.249Z,1001.89
2018-04-12T08:04:58.802Z,1001.88
2018-04-12T08:05:39.508Z,1001.91
2018-04-12T08:06:20.130Z,1001.91
2018-04-12T08:07:00.710Z,1001.87
2018-04-12T08:07:41.290Z,1001.87
2018-04-12T08:08:21.874Z,1001.87
2018-04-12T08:09:02.542Z,1001.87
2018-04-12T08:09:43.115Z,1001.82
2018-04-12T08:10:23.712Z,1001.81
2018-04-12T08:11:04.275Z,1001.77
2018-04-12T08:11:44.859Z,1001.83
2018-04-12T08:12:25.411Z,1001.76